createdAt,value
2022-09-28T00:00:25.518Z,8.79
2022-09-28T00:01:25.773Z,8.78
2022-09-28T00:02:25.704Z,8.77
2022-09-28T00:03:25.488Z,8.77
2022-09-28T00:04:25.485Z,8.78
2022-09-28T00:05:25.468Z,8.75
2022-09-28T00:06:25.454Z,8.77
2022-09-28T00:07:25.543Z,8.74
2022-09-28T00:08:25.432Z,8.75
2022-09-28T00:09:26.433Z,8.72
2022-09-28T00:10:25.410Z,8.69
2022-09-28T00:11:25.406Z,8.69
2022-09-28T00:12:25.393Z,8.69
2022-09-28T00:13:25.416Z,8.68
2022-09-28T00:14:25.361Z,8.63
2022-09-28T00:15:25.350Z,8.59
2022-09-28T00:16:26.147Z,8.53
2022-09-28T00:17:25.347Z,8.46
2022-09-28T00:18:25.306Z,8.41
2022-09-28T00:19:25.363Z,8.32
2022-09-28T00:20:25.287Z,8.31
2022-09-28T00:21:25.272Z,8.28
2022-09-28T00:22:25.271Z,8.31
2022-09-28T00:23:25.269Z,8.28
2022-09-28T00:24:27.797Z,8.28
2022-09-28T00:25:25.287Z,8.27
2022-09-28T00:26:25.216Z,8.27
2022-09-28T00:27:25.221Z,8.24
2022-09-28T00:28:25.212Z,8.26
2022-09-28T00:29:25.253Z,8.26
2022-09-28T00:30:25.173Z,8.26
2022-09-28T00:31:25.371Z,8.26
2022-09-28T00:32:25.156Z,8.26
2022-09-28T00:33:25.140Z,8.24
2022-09-28T00:34:25.139Z,8.28
2022-09-28T00:35:25.122Z,8.28
2022-09-28T00:36:25.156Z,8.31
2022-09-28T00:37:25.418Z,8.32
2022-09-28T00:38:25.089Z,8.34
2022-09-28T00:39:25.127Z,8.32
2022-09-28T00:40:25.161Z,8.32
2022-09-28T00:41:25.106Z,8.35
2022-09-28T00:42:25.043Z,8.35
2022-09-28T00:43:25.105Z,8.32
2022-09-28T00:44:25.020Z,8.31
2022-09-28T00:45:25.353Z,8.32
2022-09-28T00:46:25.034Z,8.32
2022-09-28T00:47:24.998Z,8.34
2022-09-28T00:48:25.557Z,8.35
2022-09-28T00:49:25.002Z,8.34
2022-09-28T00:50:25.005Z,8.32
2022-09-28T00:51:24.940Z,8.31
2022-09-28T00:52:24.927Z,8.32
2022-09-28T00:53:24.920Z,8.35
2022-09-28T00:54:24.900Z,8.35
2022-09-28T00:55:25.004Z,8.34
2022-09-28T00:56:24.887Z,8.35
2022-09-28T00:57:24.867Z,8.35
2022-09-28T00:58:24.886Z,8.36
2022-09-28T00:59:25.429Z,8.36
2022-09-28T01:00:24.840Z,8.35
2022-09-28T01:01:24.894Z,8.32
2022-09-28T01:02:25.903Z,8.34
2022-09-28T01:03:24.861Z,8.31
2022-09-28T01:04:29.213Z,8.27
2022-09-28T01:05:24.799Z,8.24
2022-09-28T01:06:24.759Z,8.24
2022-09-28T01:07:24.814Z,8.26
2022-09-28T01:08:24.824Z,8.26
2022-09-28T01:09:24.784Z,8.24
2022-09-28T01:10:24.717Z,8.24
2022-09-28T01:11:24.735Z,8.26
2022-09-28T01:12:24.698Z,8.26
2022-09-28T01:13:24.724Z,8.28
2022-09-28T01:14:24.705Z,8.26
2022-09-28T01:15:24.673Z,8.27
2022-09-28T01:16:24.796Z,8.26
2022-09-28T01:17:24.669Z,8.26
2022-09-28T01:18:24.636Z,8.27
2022-09-28T01:19:24.667Z,8.26
2022-09-28T01:20:24.621Z,8.26
2022-09-28T01:21:26.112Z,8.24
2022-09-28T01:22:24.606Z,8.23
2022-09-28T01:23:24.585Z,8.20
2022-09-28T01:24:24.589Z,8.20
2022-09-28T01:25:24.653Z,8.20
2022-09-28T01:26:24.543Z,8.18
2022-09-28T01:27:24.558Z,8.20
2022-09-28T01:28:24.560Z,8.18
2022-09-28T01:29:24.542Z,8.20
2022-09-28T01:30:24.500Z,8.20
2022-09-28T01:31:24.702Z,8.21
2022-09-28T01:32:25.085Z,8.23
2022-09-28T01:33:24.493Z,8.23
2022-09-28T01:34:24.458Z,8.21
2022-09-28T01:35:24.441Z,8.24
2022-09-28T01:36:24.429Z,8.26
2022-09-28T01:37:24.471Z,8.24
2022-09-28T01:38:24.409Z,8.24
2022-09-28T01:39:24.420Z,8.23
2022-09-28T01:40:24.417Z,8.23
2022-09-28T01:41:24.408Z,8.23
2022-09-28T01:42:24.384Z,8.23
2022-09-28T01:43:24.413Z,8.21
2022-09-28T01:44:24.351Z,8.21
2022-09-28T01:45:24.353Z,8.20
2022-09-28T01:46:24.309Z,8.21
2022-09-28T01:47:24.320Z,8.20
2022-09-28T01:48:24.312Z,8.20
2022-09-28T01:49:24.355Z,8.20
2022-09-28T01:50:24.270Z,8.20
2022-09-28T01:51:25.079Z,8.20
2022-09-28T01:52:24.256Z,8.20
2022-09-28T01:53:24.279Z,8.20
2022-09-28T01:54:24.234Z,8.21
2022-09-28T01:55:24.362Z,8.21
2022-09-28T01:56:24.210Z,8.23
2022-09-28T01:57:24.201Z,8.23
2022-09-28T01:58:24.187Z,8.23
2022-09-28T01:59:24.171Z,8.21
2022-09-28T02:00:24.174Z,8.20
2022-09-28T02:01:24.179Z,8.20
2022-09-28T02:02:24.189Z,8.18
2022-09-28T02:03:24.139Z,8.17
2022-09-28T02:04:24.126Z,8.17
2022-09-28T02:05:24.192Z,8.14
2022-09-28T02:06:24.106Z,8.13
2022-09-28T02:07:24.128Z,8.11
2022-09-28T02:08:24.070Z,8.11
2022-09-28T02:09:24.057Z,8.13
2022-09-28T02:10:24.370Z,8.13
2022-09-28T02:11:24.688Z,8.06
2022-09-28T02:12:24.015Z,8.06
2022-09-28T02:13:24.060Z,8.06
2022-09-28T02:14:24.053Z,8.05
2022-09-28T02:15:24.077Z,8.05
2022-09-28T02:16:24.198Z,8.05
2022-09-28T02:17:23.993Z,8.05
2022-09-28T02:18:23.994Z,8.02
2022-09-28T02:19:23.987Z,8.01
2022-09-28T02:20:23.992Z,7.99
2022-09-28T02:21:24.008Z,7.99
2022-09-28T02:22:23.932Z,7.98
2022-09-28T02:23:23.919Z,7.96
2022-09-28T02:24:23.885Z,7.96
2022-09-28T02:25:23.916Z,7.95
2022-09-28T02:26:23.869Z,7.95
2022-09-28T02:27:23.875Z,7.93
2022-09-28T02:28:23.873Z,7.91
2022-09-28T02:29:23.863Z,7.88
2022-09-28T02:30:23.842Z,7.87
2022-09-28T02:31:23.976Z,7.85
2022-09-28T02:32:23.903Z,7.85
2022-09-28T02:33:23.810Z,7.83
2022-09-28T02:34:23.893Z,7.81
2022-09-28T02:35:23.770Z,7.80
2022-09-28T02:36:23.756Z,7.80
2022-09-28T02:37:23.795Z,7.78
2022-09-28T02:38:24.341Z,7.83
2022-09-28T02:39:23.741Z,7.84
2022-09-28T02:40:23.817Z,7.84
2022-09-28T02:41:23.736Z,7.84
2022-09-28T02:42:23.882Z,7.83
2022-09-28T02:43:23.725Z,7.83
2022-09-28T02:44:23.770Z,7.83
2022-09-28T02:45:23.964Z,7.83
2022-09-28T02:46:23.706Z,7.81
2022-09-28T02:47:23.830Z,7.81
2022-09-28T02:48:41.202Z,7.80
2022-09-28T02:49:23.870Z,7.78
2022-09-28T02:50:23.753Z,7.77
2022-09-28T02:51:23.606Z,7.77
2022-09-28T02:52:23.581Z,7.74
2022-09-28T02:53:23.576Z,7.72
2022-09-28T02:54:23.545Z,7.74
2022-09-28T02:55:23.651Z,7.77
2022-09-28T02:56:23.755Z,7.77
2022-09-28T02:57:23.528Z,7.77
2022-09-28T02:58:23.628Z,7.78
2022-09-28T02:59:23.498Z,7.78
2022-09-28T03:00:23.497Z,7.80
2022-09-28T03:01:23.550Z,7.80
2022-09-28T03:02:23.791Z,7.77
2022-09-28T03:03:23.505Z,7.78
2022-09-28T03:04:23.465Z,7.74
2022-09-28T03:05:23.458Z,7.75
2022-09-28T03:06:23.411Z,7.72
2022-09-28T03:07:23.452Z,7.70
2022-09-28T03:08:23.403Z,7.66
2022-09-28T03:09:23.407Z,7.64
2022-09-28T03:10:23.394Z,7.67
2022-09-28T03:11:23.360Z,7.66
2022-09-28T03:12:23.349Z,7.66
2022-09-28T03:13:23.402Z,7.64
2022-09-28T03:14:23.420Z,7.64
2022-09-28T03:15:23.357Z,7.64
2022-09-28T03:16:23.392Z,7.62
2022-09-28T03:17:23.338Z,7.59
2022-09-28T03:18:23.287Z,7.59
2022-09-28T03:19:23.347Z,7.61
2022-09-28T03:20:23.376Z,7.62
2022-09-28T03:21:23.302Z,7.62
2022-09-28T03:22:23.230Z,7.61
2022-09-28T03:23:25.042Z,7.61
2022-09-28T03:24:23.216Z,7.58
2022-09-28T03:25:23.258Z,7.55
2022-09-28T03:26:23.265Z,7.55
2022-09-28T03:27:23.255Z,7.55
2022-09-28T03:28:23.214Z,7.55
2022-09-28T03:29:23.188Z,7.56
2022-09-28T03:30:23.150Z,7.56
2022-09-28T03:31:23.228Z,7.56
2022-09-28T03:32:23.167Z,7.56
2022-09-28T03:33:23.233Z,7.56
2022-09-28T03:34:23.112Z,7.55
2022-09-28T03:35:23.084Z,7.51
2022-09-28T03:36:23.070Z,7.50
2022-09-28T03:37:23.187Z,7.48
2022-09-28T03:38:23.125Z,7.47
2022-09-28T03:39:23.121Z,7.44
2022-09-28T03:40:23.182Z,7.41
2022-09-28T03:41:23.016Z,7.43
2022-09-28T03:42:23.009Z,7.46
2022-09-28T03:43:23.026Z,7.46
2022-09-28T03:44:23.986Z,7.46
2022-09-28T03:45:22.970Z,7.46
2022-09-28T03:46:22.963Z,7.46
2022-09-28T03:47:22.952Z,7.46
2022-09-28T03:48:25.811Z,7.44
2022-09-28T03:49:22.963Z,7.43
2022-09-28T03:50:22.979Z,7.44
2022-09-28T03:51:22.952Z,7.44
2022-09-28T03:52:22.896Z,7.46
2022-09-28T03:53:22.943Z,7.46
2022-09-28T03:54:22.877Z,7.48
2022-09-28T03:55:23.014Z,7.51
2022-09-28T03:56:22.887Z,7.55
2022-09-28T03:57:22.905Z,7.55
2022-09-28T03:58:23.829Z,7.53
2022-09-28T03:59:22.808Z,7.51
2022-09-28T04:00:22.823Z,7.51
2022-09-28T04:01:22.885Z,7.51
2022-09-28T04:02:23.612Z,7.51
2022-09-28T04:03:22.786Z,7.51
2022-09-28T04:04:22.875Z,7.51
2022-09-28T04:05:22.758Z,7.50
2022-09-28T04:06:22.745Z,7.50
2022-09-28T04:07:22.791Z,7.48
2022-09-28T04:08:22.821Z,7.47
2022-09-28T04:09:23.483Z,7.47
2022-09-28T04:10:22.694Z,7.46
2022-09-28T04:11:22.711Z,7.41
2022-09-28T04:12:22.672Z,7.41
2022-09-28T04:13:23.071Z,7.41
2022-09-28T04:14:22.679Z,7.41
2022-09-28T04:15:22.668Z,7.41
2022-09-28T04:16:22.732Z,7.40
2022-09-28T04:17:22.646Z,7.39
2022-09-28T04:18:22.670Z,7.40
2022-09-28T04:19:22.620Z,7.39
2022-09-28T04:20:23.607Z,7.39
2022-09-28T04:21:22.583Z,7.41
2022-09-28T04:22:22.696Z,7.44
2022-09-28T04:23:22.546Z,7.46
2022-09-28T04:24:22.532Z,7.50
2022-09-28T04:25:22.624Z,7.51
2022-09-28T04:26:23.060Z,7.53
2022-09-28T04:27:22.505Z,7.55
2022-09-28T04:28:22.528Z,7.56
2022-09-28T04:29:22.904Z,7.58
2022-09-28T04:30:22.477Z,7.61
2022-09-28T04:31:22.623Z,7.64
2022-09-28T04:32:22.445Z,7.66
2022-09-28T04:33:22.467Z,7.67
2022-09-28T04:34:22.498Z,7.69
2022-09-28T04:35:22.402Z,7.70
2022-09-28T04:36:22.407Z,7.74
2022-09-28T04:37:22.473Z,7.74
2022-09-28T04:38:35.891Z,7.75
2022-09-28T04:39:22.385Z,7.75
2022-09-28T04:40:22.434Z,7.74
2022-09-28T04:41:22.651Z,7.72
2022-09-28T04:42:22.339Z,7.70
2022-09-28T04:43:22.363Z,7.69
2022-09-28T04:44:22.408Z,7.67
2022-09-28T04:45:22.358Z,7.66
2022-09-28T04:46:22.293Z,7.64
2022-09-28T04:47:22.266Z,7.62
2022-09-28T04:48:22.279Z,7.61
2022-09-28T04:49:22.352Z,7.58
2022-09-28T04:50:22.258Z,7.56
2022-09-28T04:51:22.270Z,7.55
2022-09-28T04:52:22.239Z,7.55
2022-09-28T04:53:22.622Z,7.55
2022-09-28T04:54:22.217Z,7.51
2022-09-28T04:55:22.216Z,7.48
2022-09-28T04:56:23.977Z,7.48
2022-09-28T04:57:22.190Z,7.44
2022-09-28T04:58:22.166Z,7.40
2022-09-28T04:59:22.140Z,7.37
2022-09-28T05:00:22.138Z,7.33
2022-09-28T05:01:22.319Z,7.32
2022-09-28T05:02:22.202Z,7.32
2022-09-28T05:03:22.088Z,7.28
2022-09-28T05:04:25.852Z,7.29
2022-09-28T05:05:22.095Z,7.26
2022-09-28T05:06:22.067Z,7.25
2022-09-28T05:07:22.094Z,7.26
2022-09-28T05:08:22.119Z,7.25
2022-09-28T05:09:22.042Z,7.26
2022-09-28T05:10:22.006Z,7.28
2022-09-28T05:11:22.019Z,7.29
2022-09-28T05:12:21.990Z,7.29
2022-09-28T05:13:22.020Z,7.31
2022-09-28T05:14:21.969Z,7.31
2022-09-28T05:15:22.031Z,7.32
2022-09-28T05:16:21.982Z,7.32
2022-09-28T05:17:21.928Z,7.33
2022-09-28T05:18:21.911Z,7.37
2022-09-28T05:19:21.935Z,7.40
2022-09-28T05:20:21.938Z,7.41
2022-09-28T05:21:21.898Z,7.43
2022-09-28T05:22:21.885Z,7.47
2022-09-28T05:23:21.872Z,7.48
2022-09-28T05:24:21.863Z,7.50
2022-09-28T05:25:21.900Z,7.51
2022-09-28T05:26:21.882Z,7.53
2022-09-28T05:27:21.848Z,7.55
2022-09-28T05:28:21.908Z,7.55
2022-09-28T05:29:32.050Z,7.56
2022-09-28T05:30:28.143Z,7.59
2022-09-28T05:31:28.331Z,7.61
2022-09-28T05:32:22.626Z,7.61
2022-09-28T05:33:21.757Z,7.62
2022-09-28T05:34:21.749Z,7.62
2022-09-28T05:35:21.730Z,7.64
2022-09-28T05:36:21.767Z,7.69
2022-09-28T05:37:21.708Z,7.69
2022-09-28T05:38:21.732Z,7.70
2022-09-28T05:39:21.691Z,7.72
2022-09-28T05:40:21.853Z,7.75
2022-09-28T05:41:21.709Z,7.75
2022-09-28T05:42:21.693Z,7.77
2022-09-28T05:43:21.752Z,7.78
2022-09-28T05:44:21.687Z,7.80
2022-09-28T05:45:21.617Z,7.78
2022-09-28T05:46:22.702Z,7.78
2022-09-28T05:47:22.091Z,7.78
2022-09-28T05:48:21.616Z,7.78
2022-09-28T05:49:21.577Z,7.80
2022-09-28T05:50:21.572Z,7.77
2022-09-28T05:51:21.548Z,7.75
2022-09-28T05:52:21.549Z,7.72
2022-09-28T05:53:21.531Z,7.72
2022-09-28T05:54:21.557Z,7.70
2022-09-28T05:55:21.519Z,7.69
2022-09-28T05:56:21.520Z,7.67
2022-09-28T05:57:21.555Z,7.64
2022-09-28T05:58:21.483Z,7.66
2022-09-28T05:59:21.457Z,7.66
2022-09-28T06:00:21.482Z,7.64
2022-09-28T06:01:21.471Z,7.64
2022-09-28T06:02:22.210Z,7.62
2022-09-28T06:03:21.503Z,7.62
2022-09-28T06:04:21.505Z,7.62
2022-09-28T06:05:21.452Z,7.61
2022-09-28T06:06:21.486Z,7.61
2022-09-28T06:07:21.421Z,7.62
2022-09-28T06:08:21.442Z,7.62
2022-09-28T06:09:25.716Z,7.66
2022-09-28T06:10:21.342Z,7.66
2022-09-28T06:11:21.421Z,7.66
2022-09-28T06:12:21.353Z,7.66
2022-09-28T06:13:21.319Z,7.64
2022-09-28T06:14:21.292Z,7.64
2022-09-28T06:15:21.360Z,7.66
2022-09-28T06:16:21.313Z,7.64
2022-09-28T06:17:21.290Z,7.61
2022-09-28T06:18:21.295Z,7.64
2022-09-28T06:19:21.280Z,7.69
2022-09-28T06:20:21.342Z,7.70
2022-09-28T06:21:22.613Z,7.74
2022-09-28T06:22:21.382Z,7.75
2022-09-28T06:23:21.195Z,7.78
2022-09-28T06:24:22.113Z,7.80
2022-09-28T06:25:21.161Z,7.81
2022-09-28T06:26:21.204Z,7.84
2022-09-28T06:27:21.165Z,7.85
2022-09-28T06:28:21.155Z,7.84
2022-09-28T06:29:21.171Z,7.85
2022-09-28T06:30:21.170Z,7.87
2022-09-28T06:31:21.230Z,7.88
2022-09-28T06:32:21.246Z,7.90
2022-09-28T06:33:21.118Z,7.93
2022-09-28T06:34:21.130Z,7.91
2022-09-28T06:35:21.108Z,7.90
2022-09-28T06:36:21.255Z,7.87
2022-09-28T06:37:21.055Z,7.84
2022-09-28T06:38:21.117Z,7.84
2022-09-28T06:39:21.056Z,7.84
2022-09-28T06:40:21.077Z,7.81
2022-09-28T06:41:21.338Z,7.80
2022-09-28T06:42:21.471Z,7.70
2022-09-28T06:43:21.554Z,7.70
2022-09-28T06:44:21.061Z,7.72
2022-09-28T06:45:21.132Z,7.70
2022-09-28T06:46:21.113Z,7.69
2022-09-28T06:47:21.221Z,7.69
2022-09-28T06:48:21.464Z,7.70
2022-09-28T06:49:20.930Z,7.72
2022-09-28T06:50:20.936Z,7.75
2022-09-28T06:51:21.243Z,7.75
2022-09-28T06:52:21.359Z,7.78
2022-09-28T06:53:21.162Z,7.81
2022-09-28T06:54:21.383Z,7.83
2022-09-28T06:55:21.255Z,7.85
2022-09-28T06:56:22.214Z,7.85
2022-09-28T06:57:21.908Z,7.83
2022-09-28T06:58:21.209Z,7.80
2022-09-28T06:59:21.169Z,7.80
2022-09-28T07:00:20.903Z,7.75
2022-09-28T07:01:20.953Z,7.74
2022-09-28T07:02:20.899Z,7.74
2022-09-28T07:03:20.734Z,7.77
2022-09-28T07:04:20.720Z,7.81
2022-09-28T07:05:20.711Z,7.87
2022-09-28T07:06:20.772Z,7.93
2022-09-28T07:07:20.836Z,7.95
2022-09-28T07:08:20.804Z,7.96
2022-09-28T07:09:31.266Z,7.88
2022-09-28T07:10:20.708Z,7.85
2022-09-28T07:11:20.649Z,7.85
2022-09-28T07:12:20.684Z,7.88
2022-09-28T07:13:46.212Z,7.88
2022-09-28T07:14:41.522Z,7.87
2022-09-28T07:15:20.656Z,7.87
2022-09-28T07:16:25.696Z,7.84
2022-09-28T07:17:22.238Z,7.84
2022-09-28T07:18:28.649Z,7.84
2022-09-28T07:19:20.662Z,7.90
2022-09-28T07:20:20.751Z,7.99
2022-09-28T07:21:28.770Z,8.03
2022-09-28T07:22:33.626Z,8.08
2022-09-28T07:23:20.533Z,8.13
2022-09-28T07:24:20.693Z,8.21
2022-09-28T07:25:20.639Z,8.23
2022-09-28T07:26:23.699Z,8.28
2022-09-28T07:27:20.477Z,8.31
2022-09-28T07:28:20.535Z,8.26
2022-09-28T07:29:21.084Z,8.32
2022-09-28T07:30:20.747Z,8.36
2022-09-28T07:31:20.469Z,8.38
2022-09-28T07:32:20.552Z,8.39
2022-09-28T07:33:20.450Z,8.46
2022-09-28T07:34:20.425Z,8.56
2022-09-28T07:35:20.369Z,8.63
2022-09-28T07:36:20.428Z,8.71
2022-09-28T07:37:20.414Z,8.68
2022-09-28T07:38:20.469Z,8.72
2022-09-28T07:39:20.344Z,8.81
2022-09-28T07:40:20.419Z,8.87
2022-09-28T07:41:20.364Z,8.93
2022-09-28T07:42:20.376Z,8.99
2022-09-28T07:43:21.113Z,9.08
2022-09-28T07:44:20.266Z,9.12
2022-09-28T07:45:20.291Z,9.12
2022-09-28T07:46:20.286Z,9.09
2022-09-28T07:47:20.246Z,9.09
2022-09-28T07:48:20.377Z,9.15
2022-09-28T07:49:20.350Z,9.18
2022-09-28T07:50:20.213Z,9.18
2022-09-28T07:51:20.974Z,9.12
2022-09-28T07:52:20.179Z,9.09
2022-09-28T07:53:21.248Z,9.03
2022-09-28T07:54:20.290Z,9.05
2022-09-28T07:55:20.150Z,9.18
2022-09-28T07:56:20.127Z,9.22
2022-09-28T07:57:20.124Z,9.26
2022-09-28T07:58:20.108Z,9.30
2022-09-28T07:59:20.107Z,9.36
2022-09-28T08:00:20.317Z,9.44
2022-09-28T08:01:20.227Z,9.48
2022-09-28T08:02:20.155Z,9.49
2022-09-28T08:03:20.114Z,9.51
2022-09-28T08:04:20.041Z,9.42
2022-09-28T08:05:20.043Z,9.47
2022-09-28T08:06:20.087Z,9.39
2022-09-28T08:07:23.694Z,9.34
2022-09-28T08:08:19.999Z,9.42
2022-09-28T08:09:19.992Z,9.47
2022-09-28T08:10:19.969Z,9.45
2022-09-28T08:11:19.985Z,9.42
2022-09-28T08:12:20.590Z,9.48
2022-09-28T08:13:22.258Z,9.58
2022-09-28T08:14:19.987Z,9.69
2022-09-28T08:15:19.928Z,9.77
2022-09-28T08:16:19.927Z,9.94
2022-09-28T08:17:20.647Z,9.99
2022-09-28T08:18:21.894Z,10.06
2022-09-28T08:19:20.139Z,10.15
2022-09-28T08:20:19.868Z,10.10
2022-09-28T08:21:19.854Z,10.12
2022-09-28T08:22:19.860Z,10.15
2022-09-28T08:23:19.837Z,10.23
2022-09-28T08:24:19.980Z,10.21
2022-09-28T08:25:20.554Z,10.15
2022-09-28T08:26:20.527Z,10.15
2022-09-28T08:27:22.559Z,10.18
2022-09-28T08:28:19.788Z,10.24
2022-09-28T08:29:19.759Z,10.18
2022-09-28T08:30:21.281Z,10.20
2022-09-28T08:31:19.820Z,10.15
2022-09-28T08:32:20.625Z,10.20
2022-09-28T08:33:19.743Z,10.21
2022-09-28T08:34:19.753Z,10.34
2022-09-28T08:35:19.696Z,10.39
2022-09-28T08:36:19.759Z,10.45
2022-09-28T08:37:19.698Z,10.53
2022-09-28T08:38:19.958Z,10.62
2022-09-28T08:39:20.022Z,10.71
2022-09-28T08:40:19.719Z,10.92
2022-09-28T08:41:20.671Z,11.08
2022-09-28T08:42:19.698Z,11.05
2022-09-28T08:43:19.897Z,11.07
2022-09-28T08:44:19.583Z,11.04
2022-09-28T08:45:20.098Z,11.10
2022-09-28T08:46:22.775Z,11.05
2022-09-28T08:47:19.643Z,10.97
2022-09-28T08:48:19.606Z,10.95
2022-09-28T08:49:26.860Z,10.97
2022-09-28T08:50:19.525Z,10.95
2022-09-28T08:51:19.552Z,10.95
2022-09-28T08:52:19.601Z,10.94
2022-09-28T08:53:19.551Z,10.92
2022-09-28T08:54:19.591Z,10.94
2022-09-28T08:55:19.466Z,10.87
2022-09-28T08:56:19.509Z,10.86
2022-09-28T08:57:21.029Z,10.84
2022-09-28T08:58:19.484Z,10.87
2022-09-28T08:59:19.474Z,10.89
2022-09-28T09:00:19.874Z,10.86
2022-09-28T09:01:19.448Z,10.84
2022-09-28T09:02:19.441Z,10.82
2022-09-28T09:03:19.387Z,10.86
2022-09-28T09:04:19.609Z,10.87
2022-09-28T09:05:19.401Z,10.80
2022-09-28T09:06:19.382Z,10.86
2022-09-28T09:07:19.336Z,10.87
2022-09-28T09:08:20.123Z,10.97
2022-09-28T09:09:19.337Z,10.98
2022-09-28T09:10:19.332Z,10.95
2022-09-28T09:11:21.211Z,10.92
2022-09-28T09:12:19.431Z,10.92
2022-09-28T09:13:19.283Z,10.89
2022-09-28T09:14:20.339Z,10.92
2022-09-28T09:15:19.271Z,10.90
2022-09-28T09:16:19.321Z,10.87
2022-09-28T09:17:19.460Z,10.90
2022-09-28T09:18:20.033Z,10.92
2022-09-28T09:19:19.273Z,10.94
2022-09-28T09:20:19.202Z,10.90
2022-09-28T09:21:19.224Z,11.00
2022-09-28T09:22:19.155Z,10.98
2022-09-28T09:23:19.327Z,11.05
2022-09-28T09:24:19.547Z,11.08
2022-09-28T09:25:19.269Z,11.02
2022-09-28T09:26:24.044Z,11.00
2022-09-28T09:27:19.239Z,10.98
2022-09-28T09:28:19.537Z,11.01
2022-09-28T09:29:19.203Z,11.12
2022-09-28T09:30:20.558Z,11.19
2022-09-28T09:31:22.591Z,11.22
2022-09-28T09:32:19.269Z,11.26
2022-09-28T09:33:19.371Z,11.34
2022-09-28T09:34:19.489Z,11.31
2022-09-28T09:35:21.794Z,11.34
2022-09-28T09:36:19.322Z,11.44
2022-09-28T09:37:19.329Z,11.49
2022-09-28T09:38:19.490Z,11.55
2022-09-28T09:39:18.971Z,11.62
2022-09-28T09:40:19.219Z,11.80
2022-09-28T09:41:19.380Z,11.77
2022-09-28T09:42:19.395Z,11.74
2022-09-28T09:43:19.120Z,11.71
2022-09-28T09:44:19.481Z,11.62
2022-09-28T09:45:19.430Z,11.59
2022-09-28T09:46:19.387Z,11.62
2022-09-28T09:47:19.250Z,11.63
2022-09-28T09:48:19.006Z,11.62
2022-09-28T09:49:19.018Z,11.71
2022-09-28T09:50:19.192Z,11.63
2022-09-28T09:51:19.074Z,11.63
2022-09-28T09:52:19.125Z,11.62
2022-09-28T09:53:18.941Z,11.67
2022-09-28T09:54:19.023Z,11.67
2022-09-28T09:55:19.211Z,11.59
2022-09-28T09:56:19.093Z,11.53
2022-09-28T09:57:19.167Z,11.53
2022-09-28T09:58:19.005Z,11.56
2022-09-28T09:59:19.308Z,11.60
2022-09-28T10:00:19.115Z,11.62
2022-09-28T10:01:19.114Z,11.73
2022-09-28T10:02:19.046Z,11.81
2022-09-28T10:03:18.786Z,11.86
2022-09-28T10:04:18.837Z,11.99
2022-09-28T10:05:18.802Z,12.02
2022-09-28T10:06:18.795Z,12.00
2022-09-28T10:07:18.910Z,12.00
2022-09-28T10:08:18.658Z,11.99
2022-09-28T10:09:19.015Z,11.93
2022-09-28T10:10:18.966Z,11.93
2022-09-28T10:11:18.898Z,12.03
2022-09-28T10:12:18.926Z,12.07
2022-09-28T10:13:18.720Z,12.08
2022-09-28T10:14:19.083Z,12.12
2022-09-28T10:15:19.273Z,12.12
2022-09-28T10:16:18.757Z,12.12
2022-09-28T10:17:20.326Z,12.07
2022-09-28T10:18:18.968Z,12.07
2022-09-28T10:19:18.909Z,12.11
2022-09-28T10:20:18.663Z,12.14
2022-09-28T10:21:18.630Z,12.15
2022-09-28T10:22:18.715Z,12.18
2022-09-28T10:23:18.611Z,12.30
2022-09-28T10:24:18.596Z,12.28
2022-09-28T10:25:18.752Z,12.21
2022-09-28T10:26:22.798Z,12.23
2022-09-28T10:27:18.929Z,12.23
2022-09-28T10:28:18.577Z,12.25
2022-09-28T10:29:18.643Z,12.17
2022-09-28T10:30:19.143Z,12.26
2022-09-28T10:31:18.517Z,12.33
2022-09-28T10:32:18.583Z,12.28
2022-09-28T10:33:18.561Z,12.29
2022-09-28T10:34:18.549Z,12.23
2022-09-28T10:35:18.453Z,12.21
2022-09-28T10:36:18.495Z,12.17
2022-09-28T10:37:18.403Z,12.18
2022-09-28T10:38:18.395Z,12.25
2022-09-28T10:39:18.394Z,12.28
2022-09-28T10:40:18.639Z,12.30
2022-09-28T10:41:18.364Z,12.30
2022-09-28T10:42:18.509Z,12.29
2022-09-28T10:43:18.346Z,12.32
2022-09-28T10:44:18.479Z,12.40
2022-09-28T10:45:18.699Z,12.53
2022-09-28T10:46:18.313Z,12.55
2022-09-28T10:47:18.248Z,12.58
2022-09-28T10:48:18.348Z,12.62
2022-09-28T10:49:18.234Z,12.62
2022-09-28T10:50:18.214Z,12.69
2022-09-28T10:51:18.339Z,12.75
2022-09-28T10:52:18.276Z,12.70
2022-09-28T10:53:18.144Z,12.76
2022-09-28T10:54:18.635Z,12.75
2022-09-28T10:55:18.148Z,12.69
2022-09-28T10:56:18.219Z,12.66
2022-09-28T10:57:18.314Z,12.63
2022-09-28T10:58:18.221Z,12.62
2022-09-28T10:59:18.303Z,12.62
2022-09-28T11:00:18.292Z,12.62
2022-09-28T11:01:18.263Z,12.65
2022-09-28T11:02:18.256Z,12.63
2022-09-28T11:03:18.237Z,12.65
2022-09-28T11:04:18.179Z,12.68
2022-09-28T11:05:18.648Z,12.66
2022-09-28T11:06:18.026Z,12.69
2022-09-28T11:07:18.109Z,12.72
2022-09-28T11:08:18.698Z,12.75
2022-09-28T11:09:19.139Z,12.80
2022-09-28T11:10:18.236Z,12.87
2022-09-28T11:11:18.329Z,12.93
2022-09-28T11:12:18.203Z,13.03
2022-09-28T11:13:18.162Z,13.06
2022-09-28T11:14:18.192Z,13.19
2022-09-28T11:15:18.063Z,13.19
2022-09-28T11:16:18.066Z,13.26
2022-09-28T11:17:18.027Z,13.39
2022-09-28T11:18:18.091Z,13.47
2022-09-28T11:19:17.979Z,13.52
2022-09-28T11:20:18.286Z,13.60
2022-09-28T11:21:18.206Z,13.79
2022-09-28T11:22:18.234Z,13.83
2022-09-28T11:23:18.058Z,13.91
2022-09-28T11:24:19.547Z,14.01
2022-09-28T11:25:17.932Z,14.12
2022-09-28T11:26:18.911Z,14.20
2022-09-28T11:27:17.731Z,14.31
2022-09-28T11:28:17.732Z,14.26
2022-09-28T11:29:17.869Z,14.26
2022-09-28T11:30:18.230Z,14.37
2022-09-28T11:31:18.160Z,14.36
2022-09-28T11:32:18.120Z,14.40
2022-09-28T11:33:17.733Z,14.41
2022-09-28T11:34:18.320Z,14.33
2022-09-28T11:35:17.746Z,14.37
2022-09-28T11:36:17.856Z,14.62
2022-09-28T11:37:17.841Z,14.71
2022-09-28T11:38:17.615Z,14.78
2022-09-28T11:39:17.704Z,14.74
2022-09-28T11:40:18.155Z,14.85
2022-09-28T11:41:17.592Z,14.90
2022-09-28T11:42:17.616Z,14.86
2022-09-28T11:43:17.563Z,14.77
2022-09-28T11:44:17.810Z,14.71
2022-09-28T11:45:17.564Z,14.77
2022-09-28T11:46:17.710Z,14.62
2022-09-28T11:47:17.558Z,14.70
2022-09-28T11:48:17.714Z,14.70
2022-09-28T11:49:18.110Z,14.61
2022-09-28T11:50:21.457Z,14.62
2022-09-28T11:51:17.761Z,14.71
2022-09-28T11:52:17.587Z,14.70
2022-09-28T11:53:17.492Z,14.71
2022-09-28T11:54:17.690Z,14.59
2022-09-28T11:55:17.481Z,14.41
2022-09-28T11:56:18.578Z,14.40
2022-09-28T11:57:17.492Z,14.31
2022-09-28T11:58:17.511Z,14.28
2022-09-28T11:59:17.482Z,14.20
2022-09-28T12:00:17.419Z,14.11
2022-09-28T12:01:19.018Z,13.94
2022-09-28T12:02:17.514Z,13.86
2022-09-28T12:03:17.550Z,13.79
2022-09-28T12:04:17.599Z,13.79
2022-09-28T12:05:20.934Z,13.79
2022-09-28T12:06:17.328Z,13.78
2022-09-28T12:07:17.412Z,13.78
2022-09-28T12:08:17.310Z,13.71
2022-09-28T12:09:17.334Z,13.70
2022-09-28T12:10:17.437Z,13.68
2022-09-28T12:11:17.343Z,13.71
2022-09-28T12:12:17.494Z,13.71
2022-09-28T12:13:17.617Z,13.65
2022-09-28T12:14:17.286Z,13.62
2022-09-28T12:15:17.231Z,13.60
2022-09-28T12:16:38.980Z,13.55
2022-09-28T12:17:20.131Z,13.54
2022-09-28T12:18:17.415Z,13.60
2022-09-28T12:19:17.248Z,13.58
2022-09-28T12:20:17.242Z,13.55
2022-09-28T12:21:17.197Z,13.52
2022-09-28T12:22:17.154Z,13.47
2022-09-28T12:23:17.511Z,13.46
2022-09-28T12:24:17.580Z,13.45
2022-09-28T12:25:17.346Z,13.46
2022-09-28T12:26:17.379Z,13.50
2022-09-28T12:27:18.143Z,13.52
2022-09-28T12:28:17.153Z,13.50
2022-09-28T12:29:23.621Z,13.50
2022-09-28T12:30:17.303Z,13.52
2022-09-28T12:31:17.362Z,13.52
2022-09-28T12:32:18.227Z,13.50
2022-09-28T12:33:18.228Z,13.52
2022-09-28T12:34:17.140Z,13.54
2022-09-28T12:35:17.214Z,13.57
2022-09-28T12:36:17.357Z,13.54
2022-09-28T12:37:17.072Z,13.49
2022-09-28T12:38:17.080Z,13.42
2022-09-28T12:39:27.083Z,13.36
2022-09-28T12:40:17.167Z,13.31
2022-09-28T12:41:17.172Z,13.27
2022-09-28T12:42:17.150Z,13.23
2022-09-28T12:43:17.164Z,13.19
2022-09-28T12:44:16.864Z,13.09
2022-09-28T12:45:17.017Z,13.02
2022-09-28T12:46:17.209Z,12.98
2022-09-28T12:47:17.118Z,12.94
2022-09-28T12:48:17.108Z,12.93
2022-09-28T12:51:17.029Z,12.84
2022-09-28T12:52:16.839Z,12.83
2022-09-28T12:53:16.914Z,12.78
2022-09-28T12:54:16.954Z,12.78
2022-09-28T12:55:16.890Z,12.81
2022-09-28T12:56:19.428Z,12.81
2022-09-28T12:57:17.023Z,12.84
2022-09-28T12:58:16.978Z,12.84
2022-09-28T12:59:16.744Z,12.84
2022-09-28T13:00:16.699Z,12.84
2022-09-28T13:01:16.777Z,12.83
2022-09-28T13:02:16.725Z,12.81
2022-09-28T13:03:16.869Z,12.76
2022-09-28T13:04:16.720Z,12.73
2022-09-28T13:05:16.853Z,12.70
2022-09-28T13:06:16.639Z,12.70
2022-09-28T13:07:16.709Z,12.69
2022-09-28T13:08:17.216Z,12.69
2022-09-28T13:09:16.849Z,12.70
2022-09-28T13:10:16.664Z,12.70